sensor_id;sensor_type;location;lat;lon;timestamp;P1;durP1;ratioP1;P2;durP2;ratioP2
86403;SDS011;77050;48.738;9.302;2024-03-23T00:54:16;10.18;;;5.53;;
86403;SDS011;77050;48.738;9.302;2024-03-23T00:56:41;11.50;;;6.60;;
86403;SDS011;77050;48.738;9.302;2024-03-23T00:59:07;9.73;;;5.55;;
86403;SDS011;77050;48.738;9.302;2024-03-23T01:01:32;11.20;;;6.20;;
86403;SDS011;77050;48.738;9.302;2024-03-23T01:03:57;9.53;;;5.60;;
86403;SDS011;77050;48.738;9.302;2024-03-23T01:06:23;14.48;;;5.97;;
86403;SDS011;77050;48.738;9.302;2024-03-23T01:08:48;9.93;;;5.30;;
86403;SDS011;77050;48.738;9.302;2024-03-23T01:11:14;7.70;;;5.50;;
86403;SDS011;77050;48.738;9.302;2024-03-23T01:13:39;7.40;;;5.17;;
86403;SDS011;77050;48.738;9.302;2024-03-23T01:16:04;9.90;;;5.00;;
86403;SDS011;77050;48.738;9.302;2024-03-23T01:18:30;7.20;;;4.60;;
86403;SDS011;77050;48.738;9.302;2024-03-23T01:20:55;7.90;;;4.95;;
86403;SDS011;77050;48.738;9.302;2024-03-23T01:23:21;8.13;;;5.10;;
86403;SDS011;77050;48.738;9.302;2024-03-23T01:25:52;7.83;;;5.50;;
86403;SDS011;77050;48.738;9.302;2024-03-23T01:28:19;7.35;;;4.93;;
86403;SDS011;77050;48.738;9.302;2024-03-23T01:30:44;7.70;;;5.03;;
86403;SDS011;77050;48.738;9.302;2024-03-23T01:33:10;8.00;;;5.20;;
86403;SDS011;77050;48.738;9.302;2024-03-23T01:35:35;14.40;;;7.63;;
86403;SDS011;77050;48.738;9.302;2024-03-23T01:38:00;8.57;;;5.50;;
86403;SDS011;77050;48.738;9.302;2024-03-23T01:40:26;10.40;;;6.30;;
86403;SDS011;77050;48.738;9.302;2024-03-23T01:42:55;10.32;;;5.95;;
86403;SDS011;77050;48.738;9.302;2024-03-23T01:45:21;9.20;;;4.68;;
86403;SDS011;77050;48.738;9.302;2024-03-23T01:47:46;10.40;;;6.53;;
86403;SDS011;77050;48.738;9.302;2024-03-23T01:50:12;8.07;;;5.75;;
86403;SDS011;77050;48.738;9.302;2024-03-23T01:52:38;10.20;;;5.85;;
86403;SDS011;77050;48.738;9.302;2024-03-23T01:55:03;7.37;;;4.40;;
86403;SDS011;77050;48.738;9.302;2024-03-23T01:57:29;10.55;;;6.40;;
86403;SDS011;77050;48.738;9.302;2024-03-23T01:59:54;7.65;;;5.47;;
86403;SDS011;77050;48.738;9.302;2024-03-23T02:02:20;7.60;;;5.40;;
86403;SDS011;77050;48.738;9.302;2024-03-23T02:04:45;7.63;;;5.07;;
86403;SDS011;77050;48.738;9.302;2024-03-23T02:07:11;9.75;;;5.45;;
86403;SDS011;77050;48.738;9.302;2024-03-23T02:09:36;8.63;;;5.77;;
86403;SDS011;77050;48.738;9.302;2024-03-23T02:12:02;11.38;;;5.82;;
86403;SDS011;77050;48.738;9.302;2024-03-23T02:14:27;9.57;;;5.65;;
86403;SDS011;77050;48.738;9.302;2024-03-23T02:16:53;8.20;;;4.83;;
86403;SDS011;77050;48.738;9.302;2024-03-23T02:19:18;6.85;;;4.55;;
86403;SDS011;77050;48.738;9.302;2024-03-23T02:21:43;7.43;;;5.32;;
86403;SDS011;77050;48.738;9.302;2024-03-23T02:24:09;7.82;;;4.82;;
86403;SDS011;77050;48.738;9.302;2024-03-23T02:26:34;8.20;;;5.50;;
86403;SDS011;77050;48.738;9.302;2024-03-23T02:28:59;7.00;;;4.33;;
86403;SDS011;77050;48.738;9.302;2024-03-23T02:31:25;9.27;;;5.10;;
86403;SDS011;77050;48.738;9.302;2024-03-23T02:33:50;11.70;;;5.30;;
86403;SDS011;77050;48.738;9.302;2024-03-23T02:36:15;9.27;;;5.07;;
86403;SDS011;77050;48.738;9.302;2024-03-23T02:38:41;6.80;;;5.30;;
86403;SDS011;77050;48.738;9.302;2024-03-23T02:41:06;12.40;;;5.93;;
86403;SDS011;77050;48.738;9.302;2024-03-23T02:43:31;8.53;;;5.83;;
86403;SDS011;77050;48.738;9.302;2024-03-23T02:45:56;10.05;;;5.70;;
86403;SDS011;77050;48.738;9.302;2024-03-23T02:48:22;8.48;;;5.68;;
86403;SDS011;77050;48.738;9.302;2024-03-23T02:50:48;9.70;;;5.70;;
86403;SDS011;77050;48.738;9.302;2024-03-23T02:53:13;11.20;;;5.07;;
86403;SDS011;77050;48.738;9.302;2024-03-23T02:55:39;7.73;;;5.27;;
86403;SDS011;77050;48.738;9.302;2024-03-23T02:58:04;7.97;;;5.17;;
86403;SDS011;77050;48.738;9.302;2024-03-23T03:00:30;10.88;;;5.53;;
86403;SDS011;77050;48.738;9.302;2024-03-23T03:02:55;7.85;;;5.38;;
86403;SDS011;77050;48.738;9.302;2024-03-23T03:05:21;8.00;;;5.30;;
86403;SDS011;77050;48.738;9.302;2024-03-23T03:07:46;8.45;;;5.75;;
86403;SDS011;77050;48.738;9.302;2024-03-23T03:10:11;7.80;;;6.33;;
86403;SDS011;77050;48.738;9.302;2024-03-23T03:12:37;8.90;;;5.93;;
86403;SDS011;77050;48.738;9.302;2024-03-23T03:15:03;10.70;;;5.95;;
86403;SDS011;77050;48.738;9.302;2024-03-23T03:17:29;7.78;;;5.88;;
86403;SDS011;77050;48.738;9.302;2024-03-23T03:19:55;9.45;;;5.95;;
86403;SDS011;77050;48.738;9.302;2024-03-23T03:22:21;10.02;;;6.00;;
86403;SDS011;77050;48.738;9.302;2024-03-23T03:24:47;7.85;;;5.10;;
86403;SDS011;77050;48.738;9.302;2024-03-23T03:27:12;8.77;;;5.60;;
86403;SDS011;77050;48.738;9.302;2024-03-23T03:29:37;7.30;;;6.27;;
86403;SDS011;77050;48.738;9.302;2024-03-23T03:32:03;9.70;;;5.40;;
86403;SDS011;77050;48.738;9.302;2024-03-23T03:34:29;10.73;;;5.65;;
86403;SDS011;77050;48.738;9.302;2024-03-23T03:36:54;8.57;;;6.05;;
86403;SDS011;77050;48.738;9.302;2024-03-23T03:39:20;8.30;;;5.30;;
86403;SDS011;77050;48.738;9.302;2024-03-23T03:41:45;7.40;;;5.45;;
86403;SDS011;77050;48.738;9.302;2024-03-23T03:44:10;9.13;;;5.53;;
86403;SDS011;77050;48.738;9.302;2024-03-23T03:46:36;10.63;;;5.60;;
86403;SDS011;77050;48.738;9.302;2024-03-23T03:49:01;6.97;;;4.97;;
86403;SDS011;77050;48.738;9.302;2024-03-23T03:51:26;8.53;;;5.63;;
86403;SDS011;77050;48.738;9.302;2024-03-23T03:53:52;6.63;;;4.95;;
86403;SDS011;77050;48.738;9.302;2024-03-23T03:56:17;7.70;;;4.75;;
86403;SDS011;77050;48.738;9.302;2024-03-23T03:58:42;12.57;;;5.43;;
86403;SDS011;77050;48.738;9.302;2024-03-23T04:01:08;5.93;;;4.18;;
86403;SDS011;77050;48.738;9.302;2024-03-23T04:03:33;6.27;;;4.67;;
86403;SDS011;77050;48.738;9.302;2024-03-23T04:05:59;10.45;;;5.90;;
86403;SDS011;77050;48.738;9.302;2024-03-23T04:08:24;10.50;;;6.07;;
86403;SDS011;77050;48.738;9.302;2024-03-23T04:10:49;7.95;;;6.47;;
86403;SDS011;77050;48.738;9.302;2024-03-23T04:13:15;9.27;;;6.10;;
86403;SDS011;77050;48.738;9.302;2024-03-23T04:15:41;9.60;;;5.70;;
86403;SDS011;77050;48.738;9.302;2024-03-23T04:18:07;10.90;;;6.13;;
86403;SDS011;77050;48.738;9.302;2024-03-23T04:20:32;10.27;;;6.07;;
86403;SDS011;77050;48.738;9.302;2024-03-23T04:22:58;7.30;;;5.00;;
86403;SDS011;77050;48.738;9.302;2024-03-23T04:25:24;8.85;;;5.70;;
86403;SDS011;77050;48.738;9.302;2024-03-23T04:27:49;10.75;;;6.57;;
86403;SDS011;77050;48.738;9.302;2024-03-23T04:30:14;10.43;;;6.43;;
86403;SDS011;77050;48.738;9.302;2024-03-23T04:32:40;12.10;;;6.55;;
86403;SDS011;77050;48.738;9.302;2024-03-23T04:35:06;9.93;;;6.47;;
86403;SDS011;77050;48.738;9.302;2024-03-23T04:37:34;9.18;;;5.70;;
86403;SDS011;77050;48.738;9.302;2024-03-23T04:40:03;11.07;;;6.82;;
86403;SDS011;77050;48.738;9.302;2024-03-23T04:42:29;8.43;;;5.07;;
86403;SDS011;77050;48.738;9.302;2024-03-23T04:44:54;7.88;;;5.38;;
86403;SDS011;77050;48.738;9.302;2024-03-23T04:47:19;6.60;;;5.00;;
86403;SDS011;77050;48.738;9.302;2024-03-23T04:49:45;6.77;;;5.07;;
86403;SDS011;77050;48.738;9.302;2024-03-23T04:52:10;7.67;;;4.80;;
86403;SDS011;77050;48.738;9.302;2024-03-23T04:54:35;7.32;;;4.30;;
86403;SDS011;77050;48.738;9.302;2024-03-23T04:57:01;4.73;;;3.00;;
86403;SDS011;77050;48.738;9.302;2024-03-23T04:59:26;7.35;;;5.22;;
86403;SDS011;77050;48.738;9.302;2024-03-23T05:01:51;10.13;;;5.23;;
86403;SDS011;77050;48.738;9.302;2024-03-23T05:04:17;8.20;;;5.00;;
86403;SDS011;77050;48.738;9.302;2024-03-23T05:06:42;6.78;;;4.18;;
86403;SDS011;77050;48.738;9.302;2024-03-23T05:09:08;7.90;;;4.38;;
86403;SDS011;77050;48.738;9.302;2024-03-23T05:11:36;6.68;;;4.53;;
86403;SDS011;77050;48.738;9.302;2024-03-23T05:14:04;9.40;;;5.28;;
86403;SDS011;77050;48.738;9.302;2024-03-23T05:16:30;6.60;;;4.37;;
86403;SDS011;77050;48.738;9.302;2024-03-23T05:18:55;8.32;;;5.43;;
86403;SDS011;77050;48.738;9.302;2024-03-23T05:21:20;7.90;;;5.40;;
86403;SDS011;77050;48.738;9.302;2024-03-23T05:23:46;10.63;;;5.45;;
86403;SDS011;77050;48.738;9.302;2024-03-23T05:26:12;8.27;;;4.97;;
86403;SDS011;77050;48.738;9.302;2024-03-23T05:28:37;7.70;;;5.63;;
86403;SDS011;77050;48.738;9.302;2024-03-23T05:31:03;9.57;;;6.00;;
86403;SDS011;77050;48.738;9.302;2024-03-23T05:33:28;7.65;;;5.93;;
86403;SDS011;77050;48.738;9.302;2024-03-23T05:35:57;8.65;;;5.38;;
86403;SDS011;77050;48.738;9.302;2024-03-23T05:38:24;8.93;;;5.32;;
86403;SDS011;77050;48.738;9.302;2024-03-23T05:40:53;8.85;;;5.82;;
86403;SDS011;77050;48.738;9.302;2024-03-23T05:43:19;13.35;;;6.55;;
86403;SDS011;77050;48.738;9.302;2024-03-23T05:45:45;9.32;;;6.25;;
86403;SDS011;77050;48.738;9.302;2024-03-23T05:48:10;13.03;;;7.40;;
86403;SDS011;77050;48.738;9.302;2024-03-23T05:50:36;10.20;;;5.80;;
86403;SDS011;77050;48.738;9.302;2024-03-23T05:53:01;12.95;;;7.13;;
86403;SDS011;77050;48.738;9.302;2024-03-23T05:55:26;11.00;;;6.37;;
86403;SDS011;77050;48.738;9.302;2024-03-23T05:57:52;10.43;;;5.95;;
86403;SDS011;77050;48.738;9.302;2024-03-23T06:00:18;10.00;;;6.13;;
86403;SDS011;77050;48.738;9.302;2024-03-23T06:02:44;10.77;;;6.03;;
86403;SDS011;77050;48.738;9.302;2024-03-23T06:05:10;10.57;;;6.77;;
86403;SDS011;77050;48.738;9.302;2024-03-23T06:07:38;9.98;;;6.35;;
86403;SDS011;77050;48.738;9.302;2024-03-23T06:10:04;15.20;;;6.20;;
86403;SDS011;77050;48.738;9.302;2024-03-23T06:12:30;8.27;;;4.80;;
86403;SDS011;77050;48.738;9.302;2024-03-23T06:14:55;8.33;;;4.60;;
86403;SDS011;77050;48.738;9.302;2024-03-23T06:17:21;8.00;;;4.47;;
86403;SDS011;77050;48.738;9.302;2024-03-23T06:19:46;6.35;;;3.75;;
86403;SDS011;77050;48.738;9.302;2024-03-23T06:22:11;5.03;;;2.45;;
86403;SDS011;77050;48.738;9.302;2024-03-23T06:24:37;5.67;;;3.60;;
86403;SDS011;77050;48.738;9.302;2024-03-23T06:27:02;5.10;;;2.57;;
86403;SDS011;77050;48.738;9.302;2024-03-23T06:29:28;4.07;;;2.03;;
86403;SDS011;77050;48.738;9.302;2024-03-23T06:31:53;6.03;;;2.10;;
86403;SDS011;77050;48.738;9.302;2024-03-23T06:34:19;3.40;;;1.95;;
86403;SDS011;77050;48.738;9.302;2024-03-23T06:36:46;4.53;;;1.83;;
86403;SDS011;77050;48.738;9.302;2024-03-23T06:39:12;4.45;;;1.83;;
86403;SDS011;77050;48.738;9.302;2024-03-23T06:41:40;3.00;;;1.52;;
86403;SDS011;77050;48.738;9.302;2024-03-23T06:44:06;4.88;;;1.92;;
86403;SDS011;77050;48.738;9.302;2024-03-23T06:46:31;2.00;;;0.80;;
86403;SDS011;77050;48.738;9.302;2024-03-23T06:48:57;1.88;;;1.10;;
86403;SDS011;77050;48.738;9.302;2024-03-23T06:51:22;2.47;;;1.00;;
86403;SDS011;77050;48.738;9.302;2024-03-23T06:53:49;1.87;;;0.70;;
86403;SDS011;77050;48.738;9.302;2024-03-23T06:56:14;1.15;;;0.45;;
86403;SDS011;77050;48.738;9.302;2024-03-23T06:58:40;0.80;;;0.30;;
86403;SDS011;77050;48.738;9.302;2024-03-23T07:01:05;1.17;;;0.40;;
86403;SDS011;77050;48.738;9.302;2024-03-23T07:03:32;1.02;;;0.40;;
86403;SDS011;77050;48.738;9.302;2024-03-23T07:05:57;0.57;;;0.27;;
86403;SDS011;77050;48.738;9.302;2024-03-23T07:08:23;0.45;;;0.30;;
86403;SDS011;77050;48.738;9.302;2024-03-23T07:10:49;0.33;;;0.30;;
86403;SDS011;77050;48.738;9.302;2024-03-23T07:13:14;5.32;;;0.68;;
86403;SDS011;77050;48.738;9.302;2024-03-23T07:15:39;0.55;;;0.30;;
86403;SDS011;77050;48.738;9.302;2024-03-23T07:18:05;0.55;;;0.30;;
86403;SDS011;77050;48.738;9.302;2024-03-23T07:20:30;0.47;;;0.30;;
86403;SDS011;77050;48.738;9.302;2024-03-23T07:22:56;0.52;;;0.20;;
86403;SDS011;77050;48.738;9.302;2024-03-23T07:25:21;0.38;;;0.10;;
86403;SDS011;77050;48.738;9.302;2024-03-23T07:27:48;0.88;;;0.20;;
86403;SDS011;77050;48.738;9.302;2024-03-23T07:30:13;0.30;;;0.20;;
86403;SDS011;77050;48.738;9.302;2024-03-23T07:32:39;0.68;;;0.38;;
86403;SDS011;77050;48.738;9.302;2024-03-23T07:35:04;1.00;;;0.52;;
86403;SDS011;77050;48.738;9.302;2024-03-23T07:37:30;0.30;;;0.20;;
86403;SDS011;77050;48.738;9.302;2024-03-23T07:39:56;0.90;;;0.40;;
86403;SDS011;77050;48.738;9.302;2024-03-23T07:42:22;0.47;;;0.35;;
86403;SDS011;77050;48.738;9.302;2024-03-23T07:44:47;0.60;;;0.30;;
86403;SDS011;77050;48.738;9.302;2024-03-23T07:47:13;0.30;;;0.20;;
86403;SDS011;77050;48.738;9.302;2024-03-23T07:49:38;0.73;;;0.30;;
86403;SDS011;77050;48.738;9.302;2024-03-23T07:52:04;0.43;;;0.20;;
86403;SDS011;77050;48.738;9.302;2024-03-23T07:54:30;0.70;;;0.20;;
86403;SDS011;77050;48.738;9.302;2024-03-23T07:56:55;0.23;;;0.20;;
86403;SDS011;77050;48.738;9.302;2024-03-23T07:59:20;1.07;;;0.40;;
86403;SDS011;77050;48.738;9.302;2024-03-23T08:01:46;0.50;;;0.20;;
86403;SDS011;77050;48.738;9.302;2024-03-23T08:04:11;0.40;;;0.10;;
86403;SDS011;77050;48.738;9.302;2024-03-23T08:06:36;0.73;;;0.73;;
86403;SDS011;77050;48.738;9.302;2024-03-23T08:09:03;0.50;;;0.30;;
86403;SDS011;77050;48.738;9.302;2024-03-23T08:11:28;0.50;;;0.40;;
86403;SDS011;77050;48.738;9.302;2024-03-23T08:13:55;0.52;;;0.35;;
86403;SDS011;77050;48.738;9.302;2024-03-23T08:16:21;0.55;;;0.30;;
86403;SDS011;77050;48.738;9.302;2024-03-23T08:18:47;2.88;;;0.40;;
86403;SDS011;77050;48.738;9.302;2024-03-23T08:21:12;0.57;;;0.30;;
86403;SDS011;77050;48.738;9.302;2024-03-23T08:23:40;0.75;;;0.50;;
86403;SDS011;77050;48.738;9.302;2024-03-23T08:26:09;0.70;;;0.30;;
86403;SDS011;77050;48.738;9.302;2024-03-23T08:31:02;0.65;;;0.30;;
86403;SDS011;77050;48.738;9.302;2024-03-23T08:33:28;0.98;;;0.30;;
86403;SDS011;77050;48.738;9.302;2024-03-23T08:35:54;0.70;;;0.40;;
86403;SDS011;77050;48.738;9.302;2024-03-23T08:38:20;2.60;;;0.38;;
86403;SDS011;77050;48.738;9.302;2024-03-23T08:40:46;1.10;;;0.70;;
86403;SDS011;77050;48.738;9.302;2024-03-23T08:43:11;0.70;;;0.40;;
86403;SDS011;77050;48.738;9.302;2024-03-23T08:45:36;2.23;;;0.30;;
86403;SDS011;77050;48.738;9.302;2024-03-23T08:48:02;0.90;;;0.63;;
86403;SDS011;77050;48.738;9.302;2024-03-23T08:50:27;0.80;;;0.40;;
86403;SDS011;77050;48.738;9.302;2024-03-23T08:53:02;1.63;;;0.95;;
86403;SDS011;77050;48.738;9.302;2024-03-23T08:55:33;0.93;;;0.35;;
86403;SDS011;77050;48.738;9.302;2024-03-23T08:57:59;1.50;;;0.22;;
86403;SDS011;77050;48.738;9.302;2024-03-23T09:01:12;0.60;;;0.40;;
86403;SDS011;77050;48.738;9.302;2024-03-23T09:07:46;0.73;;;0.30;;
86403;SDS011;77050;48.738;9.302;2024-03-23T09:10:19;1.08;;;0.40;;
86403;SDS011;77050;48.738;9.302;2024-03-23T09:12:54;2.15;;;0.80;;
86403;SDS011;77050;48.738;9.302;2024-03-23T09:15:20;2.33;;;0.98;;
86403;SDS011;77050;48.738;9.302;2024-03-23T09:17:45;2.50;;;0.80;;
86403;SDS011;77050;48.738;9.302;2024-03-23T09:20:10;2.33;;;0.70;;
86403;SDS011;77050;48.738;9.302;2024-03-23T09:22:36;3.88;;;0.93;;
86403;SDS011;77050;48.738;9.302;2024-03-23T09:25:01;3.45;;;0.82;;
86403;SDS011;77050;48.738;9.302;2024-03-23T09:27:27;3.78;;;0.82;;
86403;SDS011;77050;48.738;9.302;2024-03-23T09:29:52;2.37;;;0.90;;
86403;SDS011;77050;48.738;9.302;2024-03-23T09:32:18;2.80;;;1.08;;
86403;SDS011;77050;48.738;9.302;2024-03-23T09:34:43;4.18;;;1.02;;
86403;SDS011;77050;48.738;9.302;2024-03-23T09:37:11;4.80;;;1.15;;
86403;SDS011;77050;48.738;9.302;2024-03-23T09:39:37;2.13;;;0.90;;
86403;SDS011;77050;48.738;9.302;2024-03-23T09:42:02;7.70;;;2.77;;
86403;SDS011;77050;48.738;9.302;2024-03-23T09:44:29;4.20;;;1.88;;
86403;SDS011;77050;48.738;9.302;2024-03-23T09:46:55;6.50;;;1.88;;
86403;SDS011;77050;48.738;9.302;2024-03-23T09:49:21;6.00;;;1.48;;
86403;SDS011;77050;48.738;9.302;2024-03-23T09:51:46;3.17;;;1.33;;
86403;SDS011;77050;48.738;9.302;2024-03-23T09:54:12;3.22;;;1.48;;
86403;SDS011;77050;48.738;9.302;2024-03-23T09:56:38;7.10;;;1.50;;
86403;SDS011;77050;48.738;9.302;2024-03-23T09:59:05;2.65;;;1.23;;
86403;SDS011;77050;48.738;9.302;2024-03-23T10:01:31;4.15;;;1.58;;
86403;SDS011;77050;48.738;9.302;2024-03-23T10:03:57;10.75;;;1.70;;
86403;SDS011;77050;48.738;9.302;2024-03-23T10:06:22;5.53;;;1.48;;
86403;SDS011;77050;48.738;9.302;2024-03-23T10:08:51;2.83;;;1.65;;
86403;SDS011;77050;48.738;9.302;2024-03-23T10:11:18;4.28;;;1.30;;
86403;SDS011;77050;48.738;9.302;2024-03-23T10:13:44;3.70;;;1.63;;
86403;SDS011;77050;48.738;9.302;2024-03-23T10:16:11;4.22;;;2.03;;
86403;SDS011;77050;48.738;9.302;2024-03-23T10:18:37;5.15;;;2.50;;
86403;SDS011;77050;48.738;9.302;2024-03-23T10:23:40;5.30;;;1.88;;
86403;SDS011;77050;48.738;9.302;2024-03-23T10:31:24;4.13;;;1.95;;
86403;SDS011;77050;48.738;9.302;2024-03-23T10:33:50;6.40;;;2.00;;
86403;SDS011;77050;48.738;9.302;2024-03-23T10:36:15;5.65;;;2.35;;
86403;SDS011;77050;48.738;9.302;2024-03-23T10:38:41;2.40;;;1.27;;
86403;SDS011;77050;48.738;9.302;2024-03-23T10:41:08;4.32;;;1.70;;
86403;SDS011;77050;48.738;9.302;2024-03-23T10:43:35;5.72;;;2.20;;
86403;SDS011;77050;48.738;9.302;2024-03-23T10:46:01;2.97;;;1.40;;
86403;SDS011;77050;48.738;9.302;2024-03-23T10:48:26;6.28;;;2.13;;
86403;SDS011;77050;48.738;9.302;2024-03-23T10:50:52;3.70;;;1.77;;
86403;SDS011;77050;48.738;9.302;2024-03-23T10:53:18;4.45;;;1.80;;
86403;SDS011;77050;48.738;9.302;2024-03-23T10:55:43;6.45;;;2.88;;
86403;SDS011;77050;48.738;9.302;2024-03-23T10:58:11;7.05;;;2.33;;
86403;SDS011;77050;48.738;9.302;2024-03-23T11:00:37;4.75;;;2.13;;
86403;SDS011;77050;48.738;9.302;2024-03-23T11:05:56;6.10;;;2.10;;
86403;SDS011;77050;48.738;9.302;2024-03-23T11:08:35;5.00;;;2.10;;
86403;SDS011;77050;48.738;9.302;2024-03-23T11:13:38;3.40;;;1.38;;
86403;SDS011;77050;48.738;9.302;2024-03-23T11:16:13;1.33;;;0.60;;
86403;SDS011;77050;48.738;9.302;2024-03-23T11:21:59;4.63;;;1.13;;
86403;SDS011;77050;48.738;9.302;2024-03-23T11:24:24;3.15;;;1.00;;
86403;SDS011;77050;48.738;9.302;2024-03-23T11:26:50;4.18;;;1.20;;
86403;SDS011;77050;48.738;9.302;2024-03-23T11:29:16;2.40;;;1.30;;
86403;SDS011;77050;48.738;9.302;2024-03-23T11:31:46;3.28;;;1.02;;
86403;SDS011;77050;48.738;9.302;2024-03-23T11:34:12;2.22;;;1.20;;
86403;SDS011;77050;48.738;9.302;2024-03-23T11:36:38;4.07;;;1.02;;
86403;SDS011;77050;48.738;9.302;2024-03-23T11:39:16;2.40;;;0.85;;
86403;SDS011;77050;48.738;9.302;2024-03-23T11:41:49;1.85;;;0.90;;
86403;SDS011;77050;48.738;9.302;2024-03-23T11:44:19;3.30;;;1.40;;
86403;SDS011;77050;48.738;9.302;2024-03-23T11:46:48;2.55;;;0.82;;
86403;SDS011;77050;48.738;9.302;2024-03-23T11:49:23;2.75;;;1.05;;
86403;SDS011;77050;48.738;9.302;2024-03-23T11:51:49;3.13;;;1.30;;
86403;SDS011;77050;48.738;9.302;2024-03-23T11:54:15;4.13;;;1.67;;
86403;SDS011;77050;48.738;9.302;2024-03-23T11:56:40;2.80;;;1.40;;
86403;SDS011;77050;48.738;9.302;2024-03-23T11:59:06;3.10;;;1.10;;
86403;SDS011;77050;48.738;9.302;2024-03-23T12:01:32;1.92;;;0.95;;
86403;SDS011;77050;48.738;9.302;2024-03-23T12:03:58;2.00;;;1.02;;
86403;SDS011;77050;48.738;9.302;2024-03-23T12:06:23;4.50;;;1.38;;
86403;SDS011;77050;48.738;9.302;2024-03-23T12:08:48;4.43;;;0.80;;
86403;SDS011;77050;48.738;9.302;2024-03-23T12:11:17;3.67;;;0.95;;
86403;SDS011;77050;48.738;9.302;2024-03-23T12:13:43;2.78;;;0.82;;
86403;SDS011;77050;48.738;9.302;2024-03-23T12:16:14;2.97;;;1.10;;
86403;SDS011;77050;48.738;9.302;2024-03-23T12:18:49;4.47;;;0.95;;
86403;SDS011;77050;48.738;9.302;2024-03-23T12:23:44;2.78;;;1.15;;
86403;SDS011;77050;48.738;9.302;2024-03-23T12:26:19;2.95;;;0.93;;
86403;SDS011;77050;48.738;9.302;2024-03-23T12:28:44;3.72;;;1.42;;
86403;SDS011;77050;48.738;9.302;2024-03-23T12:31:10;4.60;;;0.95;;
86403;SDS011;77050;48.738;9.302;2024-03-23T12:33:35;4.13;;;1.05;;
86403;SDS011;77050;48.738;9.302;2024-03-23T12:36:01;4.37;;;1.10;;
86403;SDS011;77050;48.738;9.302;2024-03-23T12:38:27;4.70;;;1.45;;
86403;SDS011;77050;48.738;9.302;2024-03-23T12:40:52;2.88;;;1.20;;
86403;SDS011;77050;48.738;9.302;2024-03-23T12:43:17;3.20;;;0.85;;
86403;SDS011;77050;48.738;9.302;2024-03-23T12:45:46;3.35;;;1.00;;
86403;SDS011;77050;48.738;9.302;2024-03-23T12:48:12;3.72;;;1.10;;
86403;SDS011;77050;48.738;9.302;2024-03-23T12:50:37;3.25;;;1.00;;
86403;SDS011;77050;48.738;9.302;2024-03-23T12:53:03;4.88;;;0.73;;
86403;SDS011;77050;48.738;9.302;2024-03-23T12:55:28;3.92;;;1.33;;
86403;SDS011;77050;48.738;9.302;2024-03-23T12:57:54;4.67;;;1.10;;
86403;SDS011;77050;48.738;9.302;2024-03-23T13:00:19;3.47;;;1.25;;
86403;SDS011;77050;48.738;9.302;2024-03-23T13:02:45;3.35;;;1.00;;
86403;SDS011;77050;48.738;9.302;2024-03-23T13:05:10;4.87;;;1.13;;
86403;SDS011;77050;48.738;9.302;2024-03-23T13:07:35;3.95;;;1.23;;
86403;SDS011;77050;48.738;9.302;2024-03-23T13:10:02;5.53;;;1.00;;
86403;SDS011;77050;48.738;9.302;2024-03-23T13:12:28;6.20;;;1.17;;
86403;SDS011;77050;48.738;9.302;2024-03-23T13:14:53;6.17;;;2.03;;
86403;SDS011;77050;48.738;9.302;2024-03-23T13:17:18;4.83;;;1.30;;
86403;SDS011;77050;48.738;9.302;2024-03-23T13:19:44;5.90;;;1.33;;
86403;SDS011;77050;48.738;9.302;2024-03-23T13:22:09;4.83;;;1.00;;
86403;SDS011;77050;48.738;9.302;2024-03-23T13:24:36;6.00;;;1.58;;
86403;SDS011;77050;48.738;9.302;2024-03-23T13:27:02;5.63;;;1.27;;
86403;SDS011;77050;48.738;9.302;2024-03-23T13:29:27;3.85;;;1.65;;
86403;SDS011;77050;48.738;9.302;2024-03-23T13:31:52;4.57;;;1.80;;
86403;SDS011;77050;48.738;9.302;2024-03-23T13:34:18;3.40;;;1.25;;
86403;SDS011;77050;48.738;9.302;2024-03-23T13:36:44;6.97;;;1.02;;
86403;SDS011;77050;48.738;9.302;2024-03-23T13:39:10;4.20;;;1.15;;
86403;SDS011;77050;48.738;9.302;2024-03-23T13:41:38;5.50;;;1.40;;
86403;SDS011;77050;48.738;9.302;2024-03-23T13:44:05;1.77;;;0.65;;
86403;SDS011;77050;48.738;9.302;2024-03-23T13:46:30;2.70;;;1.00;;
86403;SDS011;77050;48.738;9.302;2024-03-23T13:48:56;2.03;;;0.60;;
86403;SDS011;77050;48.738;9.302;2024-03-23T13:51:25;2.17;;;1.35;;
86403;SDS011;77050;48.738;9.302;2024-03-23T13:53:52;2.97;;;1.20;;
86403;SDS011;77050;48.738;9.302;2024-03-23T13:56:27;1.27;;;0.70;;
86403;SDS011;77050;48.738;9.302;2024-03-23T13:58:54;3.03;;;1.15;;
86403;SDS011;77050;48.738;9.302;2024-03-23T14:01:21;2.85;;;0.70;;
86403;SDS011;77050;48.738;9.302;2024-03-23T14:03:47;2.97;;;0.60;;
86403;SDS011;77050;48.738;9.302;2024-03-23T14:06:12;1.80;;;0.30;;
86403;SDS011;77050;48.738;9.302;2024-03-23T14:08:37;2.33;;;0.63;;
86403;SDS011;77050;48.738;9.302;2024-03-23T14:11:06;2.42;;;0.80;;
86403;SDS011;77050;48.738;9.302;2024-03-23T14:13:32;2.60;;;0.90;;
86403;SDS011;77050;48.738;9.302;2024-03-23T14:15:58;2.85;;;1.05;;
86403;SDS011;77050;48.738;9.302;2024-03-23T14:18:23;2.55;;;0.93;;
86403;SDS011;77050;48.738;9.302;2024-03-23T14:20:49;2.45;;;1.10;;
86403;SDS011;77050;48.738;9.302;2024-03-23T14:23:15;4.18;;;1.10;;
86403;SDS011;77050;48.738;9.302;2024-03-23T14:25:41;3.75;;;0.90;;
86403;SDS011;77050;48.738;9.302;2024-03-23T14:28:06;2.65;;;0.70;;
86403;SDS011;77050;48.738;9.302;2024-03-23T14:30:38;4.38;;;1.40;;
86403;SDS011;77050;48.738;9.302;2024-03-23T14:33:04;1.42;;;0.70;;
86403;SDS011;77050;48.738;9.302;2024-03-23T14:35:29;3.30;;;0.90;;
86403;SDS011;77050;48.738;9.302;2024-03-23T14:37:54;2.83;;;0.83;;
86403;SDS011;77050;48.738;9.302;2024-03-23T14:40:20;2.80;;;0.70;;
86403;SDS011;77050;48.738;9.302;2024-03-23T14:42:48;2.53;;;1.17;;
86403;SDS011;77050;48.738;9.302;2024-03-23T14:45:14;2.67;;;0.82;;
86403;SDS011;77050;48.738;9.302;2024-03-23T14:47:40;3.53;;;0.82;;
86403;SDS011;77050;48.738;9.302;2024-03-23T14:50:07;2.05;;;0.50;;
86403;SDS011;77050;48.738;9.302;2024-03-23T14:52:33;2.10;;;1.10;;
86403;SDS011;77050;48.738;9.302;2024-03-23T14:54:58;2.93;;;0.90;;
86403;SDS011;77050;48.738;9.302;2024-03-23T14:57:24;0.98;;;0.50;;
86403;SDS011;77050;48.738;9.302;2024-03-23T14:59:49;1.23;;;0.50;;
86403;SDS011;77050;48.738;9.302;2024-03-23T15:02:15;3.15;;;0.73;;
86403;SDS011;77050;48.738;9.302;2024-03-23T15:04:40;2.53;;;0.60;;
86403;SDS011;77050;48.738;9.302;2024-03-23T15:07:06;2.65;;;0.60;;
86403;SDS011;77050;48.738;9.302;2024-03-23T15:09:32;2.25;;;0.63;;
86403;SDS011;77050;48.738;9.302;2024-03-23T15:11:58;3.42;;;0.82;;
86403;SDS011;77050;48.738;9.302;2024-03-23T15:14:24;3.03;;;0.70;;
86403;SDS011;77050;48.738;9.302;2024-03-23T15:16:49;1.30;;;0.70;;
86403;SDS011;77050;48.738;9.302;2024-03-23T15:19:15;1.27;;;0.50;;
86403;SDS011;77050;48.738;9.302;2024-03-23T15:21:42;2.80;;;0.60;;
86403;SDS011;77050;48.738;9.302;2024-03-23T15:24:10;1.80;;;0.52;;
86403;SDS011;77050;48.738;9.302;2024-03-23T15:26:38;1.40;;;0.60;;
86403;SDS011;77050;48.738;9.302;2024-03-23T15:29:04;2.08;;;0.70;;
86403;SDS011;77050;48.738;9.302;2024-03-23T15:31:37;1.15;;;0.32;;
86403;SDS011;77050;48.738;9.302;2024-03-23T15:34:05;2.38;;;0.70;;
86403;SDS011;77050;48.738;9.302;2024-03-23T15:36:34;3.00;;;0.50;;
86403;SDS011;77050;48.738;9.302;2024-03-23T15:39:00;3.60;;;0.80;;
86403;SDS011;77050;48.738;9.302;2024-03-23T15:41:25;1.98;;;0.65;;
86403;SDS011;77050;48.738;9.302;2024-03-23T15:43:51;2.25;;;0.50;;
86403;SDS011;77050;48.738;9.302;2024-03-23T15:46:17;1.60;;;0.40;;
86403;SDS011;77050;48.738;9.302;2024-03-23T15:48:44;2.03;;;0.52;;
86403;SDS011;77050;48.738;9.302;2024-03-23T15:51:11;1.38;;;0.73;;
86403;SDS011;77050;48.738;9.302;2024-03-23T15:53:37;2.45;;;0.60;;
86403;SDS011;77050;48.738;9.302;2024-03-23T15:56:02;1.92;;;0.40;;
86403;SDS011;77050;48.738;9.302;2024-03-23T15:58:31;1.60;;;0.95;;